createdAt,value
2019-05-10T00:00:08.679Z,83.80
2019-05-10T00:02:55.880Z,84.80
2019-05-10T00:05:42.187Z,85.30
2019-05-10T00:08:28.931Z,83.70
2019-05-10T00:11:26.429Z,82.90
2019-05-10T00:14:09.090Z,83.20
2019-05-10T00:16:37.953Z,83.50
2019-05-10T00:19:06.955Z,82.00
2019-05-10T00:21:35.824Z,81.00
2019-05-10T00:24:04.726Z,81.40
2019-05-10T00:26:33.522Z,83.30
2019-05-10T00:29:02.434Z,83.20
2019-05-10T00:31:31.310Z,83.50
2019-05-10T00:34:00.192Z,83.50
2019-05-10T00:36:28.941Z,84.60
2019-05-10T00:38:57.736Z,85.40
2019-05-10T00:41:26.499Z,84.90
2019-05-10T00:43:55.316Z,84.10
2019-05-10T00:46:24.524Z,84.60
2019-05-10T00:48:53.515Z,85.00
2019-05-10T00:51:22.401Z,85.20
2019-05-10T00:53:51.247Z,85.10
2019-05-10T00:56:20.107Z,84.20
2019-05-10T00:58:48.963Z,84.70
2019-05-10T01:01:18.777Z,82.40
2019-05-10T01:03:48.018Z,79.00
2019-05-10T01:06:17.036Z,80.30
2019-05-10T01:08:45.852Z,77.70
2019-05-10T01:11:14.714Z,78.30
2019-05-10T01:13:43.483Z,77.50
2019-05-10T01:16:12.512Z,75.90
2019-05-10T01:18:41.608Z,76.20
2019-05-10T01:21:10.468Z,74.40
2019-05-10T01:23:39.214Z,73.30
2019-05-10T01:26:08.203Z,73.40
2019-05-10T01:28:37.058Z,74.50
2019-05-10T01:31:06.200Z,74.80
2019-05-10T01:33:34.976Z,74.40
2019-05-10T01:36:03.815Z,76.00
2019-05-10T01:38:32.675Z,75.90
2019-05-10T01:41:01.431Z,76.50
2019-05-10T01:43:30.228Z,77.40
2019-05-10T01:45:59.323Z,78.30
2019-05-10T01:48:28.120Z,78.40
2019-05-10T01:50:56.927Z,79.00
2019-05-10T01:53:25.789Z,80.50
2019-05-10T01:55:54.555Z,82.20
2019-05-10T01:58:23.341Z,83.80
2019-05-10T02:00:52.111Z,82.20
2019-05-10T02:03:21.207Z,82.70
2019-05-10T02:05:50.259Z,84.10
2019-05-10T02:08:19.086Z,86.00
2019-05-10T02:10:47.896Z,85.90
2019-05-10T02:13:17.025Z,85.90
2019-05-10T02:15:45.900Z,86.20
2019-05-10T02:18:15.051Z,85.20
2019-05-10T02:20:43.845Z,84.70
2019-05-10T02:23:12.648Z,84.70
2019-05-10T02:25:41.687Z,85.30
2019-05-10T02:28:10.516Z,86.20
2019-05-10T02:30:39.407Z,87.50
2019-05-10T02:33:08.533Z,89.20
2019-05-10T02:35:37.612Z,91.20
2019-05-10T02:38:06.404Z,90.80
2019-05-10T02:40:35.232Z,91.60
2019-05-10T02:43:04.064Z,90.80
2019-05-10T02:45:33.294Z,91.30
2019-05-10T02:48:02.208Z,90.70
2019-05-10T02:50:31.182Z,91.20
2019-05-10T02:53:00.396Z,90.90
2019-05-10T02:55:29.364Z,91.60
2019-05-10T02:57:58.725Z,92.80
2019-05-10T03:00:27.766Z,93.40
2019-05-10T03:02:57.773Z,92.70
2019-05-10T03:05:29.735Z,92.50
2019-05-10T03:07:58.919Z,93.20
2019-05-10T03:10:32.532Z,93.00
2019-05-10T03:13:03.372Z,92.70
2019-05-10T03:15:37.984Z,92.20
2019-05-10T03:18:07.096Z,92.00
2019-05-10T03:20:38.331Z,91.10
2019-05-10T03:23:10.591Z,91.10
2019-05-10T03:25:39.825Z,90.10
2019-05-10T03:28:08.619Z,90.40
2019-05-10T03:30:37.693Z,91.20
2019-05-10T03:33:06.541Z,91.20
2019-05-10T03:35:35.663Z,90.60
2019-05-10T03:38:04.644Z,89.60
2019-05-10T03:40:33.467Z,89.50
2019-05-10T03:43:02.747Z,89.70
2019-05-10T03:45:31.647Z,89.70
2019-05-10T03:48:00.649Z,90.40
2019-05-10T03:50:29.424Z,90.50
2019-05-10T03:52:58.708Z,90.40
2019-05-10T03:55:27.900Z,89.50
2019-05-10T03:57:56.705Z,88.40
2019-05-10T04:00:25.595Z,88.80
2019-05-10T04:02:54.455Z,89.50
2019-05-10T04:05:23.245Z,90.30
2019-05-10T04:07:52.096Z,89.90
2019-05-10T04:10:21.240Z,89.90
2019-05-10T04:12:50.547Z,91.20
2019-05-10T04:15:19.684Z,92.50
2019-05-10T04:17:50.295Z,93.90
2019-05-10T04:20:19.072Z,93.50
2019-05-10T04:22:47.897Z,95.60
2019-05-10T04:25:17.244Z,94.10
2019-05-10T04:27:46.027Z,94.40
2019-05-10T04:30:15.463Z,93.60
2019-05-10T04:32:45.060Z,94.70
2019-05-10T04:35:14.254Z,93.80
2019-05-10T04:37:43.555Z,94.20
2019-05-10T04:40:12.439Z,95.80
2019-05-10T04:42:41.552Z,93.10
2019-05-10T04:45:10.779Z,92.70
2019-05-10T04:47:39.524Z,92.10
2019-05-10T04:50:08.554Z,90.00
2019-05-10T04:52:37.357Z,91.00
2019-05-10T04:55:06.920Z,91.80
2019-05-10T04:57:49.116Z,92.70
2019-05-10T05:00:07.802Z,90.00
2019-05-10T05:02:37.196Z,89.30
2019-05-10T05:05:06.604Z,87.40
2019-05-10T05:07:35.626Z,86.30
2019-05-10T05:10:05.045Z,88.30
2019-05-10T05:12:33.871Z,87.90
2019-05-10T05:15:02.732Z,84.80
2019-05-10T05:17:31.836Z,86.60
2019-05-10T05:20:00.671Z,85.40
2019-05-10T05:22:29.450Z,82.30
2019-05-10T05:25:01.253Z,80.60
2019-05-10T05:27:28.822Z,81.20
2019-05-10T05:29:57.709Z,80.90
2019-05-10T05:32:26.877Z,77.20
2019-05-10T05:34:56.240Z,75.70
2019-05-10T05:37:24.994Z,78.80
2019-05-10T05:39:53.767Z,75.70
2019-05-10T05:42:27.871Z,74.40
2019-05-10T05:44:54.370Z,74.30
2019-05-10T05:47:23.296Z,72.40
2019-05-10T05:49:52.475Z,70.90
2019-05-10T05:52:21.596Z,70.50
2019-05-10T05:54:52.892Z,69.80
2019-05-10T05:57:22.154Z,67.70
2019-05-10T05:59:51.518Z,71.60
2019-05-10T06:02:20.370Z,67.70
2019-05-10T06:04:49.223Z,65.40
2019-05-10T06:07:18.091Z,60.50
2019-05-10T06:09:47.039Z,61.20
2019-05-10T06:12:15.936Z,59.30
2019-05-10T06:14:49.911Z,55.50
2019-05-10T06:17:15.285Z,57.30
2019-05-10T06:19:44.597Z,57.70
2019-05-10T06:22:13.850Z,54.60
2019-05-10T06:24:46.743Z,54.30
2019-05-10T06:27:13.248Z,53.10
2019-05-10T06:29:43.169Z,51.60
2019-05-10T06:32:12.123Z,48.40
2019-05-10T06:34:41.042Z,49.70
2019-05-10T06:37:09.888Z,47.50
2019-05-10T06:39:38.709Z,45.20
2019-05-10T06:42:07.480Z,42.80
2019-05-10T06:44:36.272Z,44.90
2019-05-10T06:47:08.171Z,46.90
2019-05-10T06:49:41.637Z,46.30
2019-05-10T06:52:06.375Z,46.40
2019-05-10T06:54:35.188Z,49.50
2019-05-10T06:57:04.040Z,53.00
2019-05-10T06:59:32.872Z,54.50
2019-05-10T07:02:01.686Z,56.60
2019-05-10T07:04:35.102Z,55.80
2019-05-10T07:07:01.140Z,54.30
2019-05-10T07:09:30.264Z,56.80
2019-05-10T07:11:59.146Z,57.40
2019-05-10T07:14:28.036Z,57.40
2019-05-10T07:17:02.820Z,60.10
2019-05-10T07:19:28.897Z,59.00
2019-05-10T07:21:57.883Z,58.50
2019-05-10T07:24:27.094Z,61.90
2019-05-10T07:26:56.472Z,60.50
2019-05-10T07:29:30.119Z,60.70
2019-05-10T07:31:56.995Z,58.40
2019-05-10T07:34:25.802Z,55.80
2019-05-10T07:36:54.660Z,52.60
2019-05-10T07:39:23.567Z,55.60
2019-05-10T07:41:52.368Z,55.00
2019-05-10T07:44:21.267Z,55.50
2019-05-10T07:46:53.930Z,51.80
2019-05-10T07:49:23.970Z,51.90
2019-05-10T07:51:51.348Z,50.20
2019-05-10T07:54:20.194Z,52.00
2019-05-10T07:56:48.974Z,52.70
2019-05-10T07:59:21.976Z,51.00
2019-05-10T08:01:49.261Z,49.70
2019-05-10T08:04:19.852Z,51.50
2019-05-10T08:06:51.862Z,50.10
2019-05-10T08:09:19.497Z,50.40
2019-05-10T08:11:48.683Z,53.80
2019-05-10T08:14:19.317Z,51.40
2019-05-10T08:16:49.857Z,51.40
2019-05-10T08:19:18.710Z,54.70
2019-05-10T08:21:48.695Z,55.10
2019-05-10T08:24:18.003Z,58.60
2019-05-10T08:26:46.839Z,60.00
2019-05-10T08:29:17.023Z,58.00
2019-05-10T08:31:52.716Z,54.70
2019-05-10T08:34:17.051Z,51.80
2019-05-10T08:36:47.627Z,47.80
2019-05-10T08:39:16.486Z,47.00
2019-05-10T08:41:46.034Z,47.30
2019-05-10T08:44:19.762Z,45.40
2019-05-10T08:46:46.593Z,44.80
2019-05-10T08:49:15.419Z,47.20
2019-05-10T08:51:49.097Z,43.00
2019-05-10T08:54:14.732Z,46.30
2019-05-10T08:56:46.679Z,43.30
2019-05-10T08:59:16.377Z,43.20
2019-05-10T09:01:50.132Z,42.80
2019-05-10T09:04:15.507Z,45.40
2019-05-10T09:06:47.556Z,43.70
2019-05-10T09:09:16.423Z,41.50
2019-05-10T09:11:45.561Z,36.50
2019-05-10T09:14:19.728Z,32.00
2019-05-10T09:16:56.316Z,32.00
2019-05-10T09:19:18.690Z,27.80
2019-05-10T09:21:49.602Z,26.10
2019-05-10T09:24:17.197Z,20.60
2019-05-10T09:26:47.004Z,16.70
2019-05-10T09:29:16.463Z,7.70
2019-05-10T09:31:50.438Z,3.40
2019-05-10T09:34:15.663Z,2.00
2019-05-10T09:36:47.029Z,1.00
2019-05-10T09:39:21.478Z,1.00
2019-05-10T09:41:45.740Z,1.00
2019-05-10T09:44:14.569Z,1.80
2019-05-10T09:46:43.343Z,3.30
2019-05-10T09:49:17.585Z,1.90
2019-05-10T09:51:42.676Z,2.40
2019-05-10T09:54:11.760Z,5.90
2019-05-10T09:56:44.336Z,3.00
2019-05-10T09:59:11.333Z,1.00
2019-05-10T10:01:40.373Z,1.60
2019-05-10T10:04:09.384Z,1.70
2019-05-10T10:06:41.996Z,3.30
2019-05-10T10:09:11.200Z,3.00
2019-05-10T10:11:39.527Z,1.00
2019-05-10T10:14:10.139Z,2.30
2019-05-10T10:16:38.751Z,3.50
2019-05-10T10:19:07.511Z,1.50
2019-05-10T10:21:38.946Z,1.70
2019-05-10T10:24:15.929Z,1.00
2019-05-10T10:26:37.913Z,3.10
2019-05-10T10:29:07.418Z,3.90
2019-05-10T10:31:46.530Z,4.70
2019-05-10T10:34:07.731Z,6.60
2019-05-10T10:36:40.205Z,5.30
2019-05-10T10:39:07.626Z,3.70
2019-05-10T10:41:36.415Z,5.80
2019-05-10T10:44:08.401Z,5.00
2019-05-10T10:46:37.340Z,5.30
2019-05-10T10:49:06.327Z,4.70
2019-05-10T10:51:35.184Z,5.90
2019-05-10T10:54:03.990Z,3.90
2019-05-10T10:56:32.748Z,4.00
2019-05-10T10:59:01.804Z,1.20
2019-05-10T11:01:46.192Z,1.00
2019-05-10T11:04:03.694Z,1.00
2019-05-10T11:06:32.333Z,1.30
2019-05-10T11:09:01.879Z,2.00
2019-05-10T11:11:38.633Z,1.60
2019-05-10T11:14:07.059Z,3.00
2019-05-10T11:16:31.981Z,3.00
2019-05-10T11:19:03.617Z,4.60
2019-05-10T11:21:33.379Z,4.60
2019-05-10T11:24:01.779Z,5.90
2019-05-10T11:26:32.820Z,7.00
2019-05-10T11:29:01.363Z,4.90
2019-05-10T11:31:31.174Z,8.20
2019-05-10T11:34:01.545Z,7.60
2019-05-10T11:36:31.314Z,6.20
2019-05-10T11:39:01.565Z,1.00
2019-05-10T11:41:31.418Z,2.60
2019-05-10T11:44:05.591Z,1.00
2019-05-10T11:46:31.115Z,1.00
2019-05-10T11:49:01.792Z,1.00
2019-05-10T11:51:31.583Z,1.00
2019-05-10T11:54:00.584Z,1.00
2019-05-10T11:56:32.052Z,1.00
2019-05-10T11:59:02.513Z,1.00
2019-05-10T12:01:31.363Z,1.00
2019-05-10T12:04:04.731Z,1.00
2019-05-10T12:06:32.012Z,1.00
2019-05-10T12:09:04.390Z,1.00
2019-05-10T12:11:33.839Z,1.00
2019-05-10T12:14:02.619Z,1.00
2019-05-10T12:16:33.367Z,1.00
2019-05-10T12:19:10.560Z,1.00
2019-05-10T12:21:33.390Z,1.00
2019-05-10T12:24:10.316Z,1.00
2019-05-10T12:27:13.964Z,1.00
2019-05-10T12:29:12.431Z,1.00
2019-05-10T12:31:35.019Z,1.00
2019-05-10T12:34:08.935Z,1.00
2019-05-10T12:36:35.050Z,1.00
2019-05-10T12:39:05.636Z,1.00
2019-05-10T12:41:39.648Z,1.00
2019-05-10T12:44:07.487Z,1.00
2019-05-10T12:46:38.768Z,1.00
2019-05-10T12:49:06.224Z,1.00
2019-05-10T12:51:35.236Z,1.00
2019-05-10T12:54:04.031Z,1.00
2019-05-10T12:56:34.802Z,1.00
2019-05-10T12:59:03.530Z,1.00
2019-05-10T13:01:33.295Z,1.00
2019-05-10T13:04:07.449Z,1.00
2019-05-10T13:06:32.645Z,1.00
2019-05-10T13:09:01.461Z,1.00
2019-05-10T13:11:30.352Z,1.00
2019-05-10T13:14:00.920Z,1.00
2019-05-10T13:16:29.577Z,1.00
2019-05-10T13:18:58.592Z,1.00
2019-05-10T13:21:30.135Z,1.00
2019-05-10T13:23:57.843Z,1.00
2019-05-10T13:26:26.663Z,1.00
2019-05-10T13:28:55.643Z,1.00
2019-05-10T13:31:24.371Z,1.00
2019-05-10T13:33:53.138Z,1.00
2019-05-10T13:36:22.044Z,1.00
2019-05-10T13:38:50.894Z,1.00
2019-05-10T13:41:24.071Z,1.00
2019-05-10T13:43:50.175Z,1.00
2019-05-10T13:46:19.187Z,1.00
2019-05-10T13:48:47.992Z,1.00
2019-05-10T13:51:16.789Z,1.00
2019-05-10T13:53:45.721Z,1.00
2019-05-10T13:56:14.752Z,1.00
2019-05-10T13:58:43.480Z,1.00
2019-05-10T14:01:13.578Z,1.00
2019-05-10T14:03:46.460Z,1.00
2019-05-10T14:06:13.651Z,1.00
2019-05-10T14:08:48.032Z,1.00
2019-05-10T14:11:12.896Z,1.00
2019-05-10T14:13:43.288Z,1.00
2019-05-10T14:16:18.330Z,1.00
2019-05-10T14:18:42.701Z,1.00
2019-05-10T14:21:11.472Z,1.00
2019-05-10T14:23:40.308Z,1.00
2019-05-10T14:26:15.709Z,1.90
2019-05-10T14:28:39.682Z,1.00
2019-05-10T14:31:08.808Z,1.00
2019-05-10T14:33:37.622Z,1.40
2019-05-10T14:36:06.424Z,2.00
2019-05-10T14:38:35.209Z,2.40
2019-05-10T14:41:10.700Z,1.60
2019-05-10T14:43:34.996Z,1.20
2019-05-10T14:46:03.903Z,1.00
2019-05-10T14:48:35.386Z,1.00
2019-05-10T14:51:11.199Z,1.00
2019-05-10T14:53:34.219Z,1.00
2019-05-10T14:56:08.137Z,1.00
2019-05-10T14:58:34.528Z,1.50
2019-05-10T15:01:03.638Z,1.00
2019-05-10T15:03:34.713Z,1.00
2019-05-10T15:06:03.103Z,1.00
2019-05-10T15:08:32.328Z,1.00
2019-05-10T15:11:01.310Z,1.00
2019-05-10T15:13:30.359Z,1.00
2019-05-10T15:15:59.147Z,1.00
2019-05-10T15:18:27.986Z,1.00
2019-05-10T15:20:56.774Z,1.00
2019-05-10T15:23:25.536Z,1.00
2019-05-10T15:25:57.609Z,1.00
2019-05-10T15:28:25.054Z,1.00
2019-05-10T15:30:53.819Z,1.00
2019-05-10T15:33:22.904Z,1.00
2019-05-10T15:35:53.941Z,1.00
2019-05-10T15:38:23.087Z,1.00
2019-05-10T15:40:51.923Z,1.00
2019-05-10T15:43:20.841Z,1.30
2019-05-10T15:45:52.293Z,3.40
2019-05-10T15:48:20.481Z,2.60
2019-05-10T15:50:49.462Z,3.40
2019-05-10T15:53:19.575Z,4.10
2019-05-10T15:55:48.884Z,4.20
2019-05-10T15:58:17.802Z,7.60
2019-05-10T16:00:47.017Z,8.00
2019-05-10T16:03:15.795Z,8.30
2019-05-10T16:05:59.897Z,6.50
2019-05-10T16:08:23.888Z,3.80
2019-05-10T16:10:49.822Z,3.70
2019-05-10T16:13:23.305Z,4.90
2019-05-10T16:15:51.688Z,6.60
2019-05-10T16:18:19.679Z,6.40
2019-05-10T16:20:48.504Z,5.70
2019-05-10T16:23:17.609Z,7.50
2019-05-10T16:25:48.518Z,9.80
2019-05-10T16:28:20.762Z,9.60
2019-05-10T16:30:47.340Z,9.80
2019-05-10T16:33:18.251Z,10.00
2019-05-10T16:35:49.519Z,10.50
2019-05-10T16:38:17.456Z,10.50
2019-05-10T16:40:57.365Z,10.50
2019-05-10T16:43:23.934Z,11.90
2019-05-10T16:45:47.873Z,11.30
2019-05-10T16:48:16.976Z,13.20
2019-05-10T16:50:45.808Z,12.50
2019-05-10T16:53:14.812Z,12.70
2019-05-10T16:55:43.590Z,11.10
2019-05-10T16:58:15.026Z,10.90
2019-05-10T17:00:46.280Z,11.30
2019-05-10T17:03:18.557Z,9.40
2019-05-10T17:05:53.095Z,9.80
2019-05-10T17:08:16.588Z,10.50
2019-05-10T17:10:45.367Z,10.90
2019-05-10T17:13:14.190Z,10.30
2019-05-10T17:15:42.961Z,10.90
2019-05-10T17:18:17.706Z,9.40
2019-05-10T17:20:45.595Z,11.10
2019-05-10T17:23:13.043Z,11.10
2019-05-10T17:25:42.322Z,10.80
2019-05-10T17:28:11.186Z,11.50
2019-05-10T17:30:40.054Z,9.10
2019-05-10T17:33:11.971Z,9.80
2019-05-10T17:35:42.134Z,9.00
2019-05-10T17:38:14.363Z,9.50
2019-05-10T17:40:47.032Z,9.60
2019-05-10T17:43:14.170Z,10.50
2019-05-10T17:45:43.298Z,11.40
2019-05-10T17:48:13.428Z,12.20
2019-05-10T17:50:45.407Z,12.80
2019-05-10T17:53:12.964Z,13.70
2019-05-10T17:55:41.968Z,15.20
2019-05-10T17:58:10.795Z,16.60
2019-05-10T18:00:41.936Z,16.20
2019-05-10T18:03:10.805Z,13.20
2019-05-10T18:05:41.294Z,14.20
2019-05-10T18:08:14.964Z,14.50
2019-05-10T18:10:43.829Z,15.20
2019-05-10T18:13:12.700Z,16.00
2019-05-10T18:15:41.527Z,16.70
2019-05-10T18:18:10.339Z,16.40
2019-05-10T18:20:42.212Z,15.90
2019-05-10T18:23:10.639Z,17.20
2019-05-10T18:25:42.802Z,17.80
2019-05-10T18:28:17.787Z,18.60
2019-05-10T18:30:50.582Z,18.30
2019-05-10T18:33:19.721Z,21.20
2019-05-10T18:35:52.690Z,22.60
2019-05-10T18:38:19.450Z,23.40
2019-05-10T18:40:48.344Z,23.50
2019-05-10T18:43:17.172Z,24.60
2019-05-10T18:45:46.435Z,25.50
2019-05-10T18:48:15.529Z,26.80
2019-05-10T18:50:45.645Z,27.00
2019-05-10T18:53:15.392Z,28.30
2019-05-10T18:55:44.400Z,28.90
2019-05-10T18:58:13.389Z,28.40
2019-05-10T19:00:42.302Z,29.40
2019-05-10T19:03:11.244Z,30.90
2019-05-10T19:05:40.149Z,31.90
2019-05-10T19:08:09.383Z,31.60
2019-05-10T19:10:38.474Z,33.60
2019-05-10T19:13:07.993Z,35.50
2019-05-10T19:15:37.019Z,37.30
2019-05-10T19:18:06.117Z,37.20
2019-05-10T19:20:34.948Z,37.20
2019-05-10T19:23:05.503Z,38.00
2019-05-10T19:25:37.693Z,39.30
2019-05-10T19:28:05.464Z,40.50
2019-05-10T19:30:34.643Z,42.70
2019-05-10T19:33:03.564Z,45.10
2019-05-10T19:35:35.812Z,45.80
2019-05-10T19:38:02.934Z,46.70
2019-05-10T19:40:31.771Z,48.50
2019-05-10T19:43:03.739Z,50.40
2019-05-10T19:45:32.541Z,52.30
2019-05-10T19:48:01.635Z,54.60
2019-05-10T19:50:31.612Z,55.30
2019-05-10T19:53:03.804Z,57.20
2019-05-10T19:55:32.114Z,60.60
2019-05-10T19:58:01.052Z,59.60
2019-05-10T20:00:30.701Z,61.00
2019-05-10T20:03:00.106Z,61.10
2019-05-10T20:05:29.089Z,62.20
2019-05-10T20:07:57.895Z,62.90
2019-05-10T20:10:26.717Z,62.50
2019-05-10T20:12:55.579Z,63.20
2019-05-10T20:15:24.454Z,64.30
2019-05-10T20:17:53.533Z,64.50
2019-05-10T20:20:22.569Z,66.70
2019-05-10T20:22:51.868Z,68.10
2019-05-10T20:25:20.733Z,69.50
2019-05-10T20:27:49.469Z,70.10
2019-05-10T20:30:18.659Z,71.40
2019-05-10T20:32:47.499Z,71.40
2019-05-10T20:35:16.537Z,72.60
2019-05-10T20:38:00.313Z,73.20
2019-05-10T20:40:16.064Z,73.40
2019-05-10T20:42:45.120Z,72.50
2019-05-10T20:45:14.460Z,73.30
2019-05-10T20:47:43.245Z,73.10
2019-05-10T20:50:12.455Z,72.10
2019-05-10T20:52:41.536Z,72.10
2019-05-10T20:55:10.537Z,73.40
2019-05-10T20:57:39.703Z,73.50
2019-05-10T21:00:09.085Z,74.20
2019-05-10T21:02:37.888Z,73.60
2019-05-10T21:05:07.510Z,75.00
2019-05-10T21:07:36.355Z,75.70
2019-05-10T21:10:05.481Z,76.20
2019-05-10T21:12:34.274Z,76.80
2019-05-10T21:15:03.378Z,77.30
2019-05-10T21:17:32.497Z,78.00
2019-05-10T21:20:01.378Z,78.30
2019-05-10T21:22:30.263Z,79.60
2019-05-10T21:24:59.323Z,80.40
2019-05-10T21:27:28.117Z,81.00
2019-05-10T21:29:56.915Z,81.60
2019-05-10T21:32:25.978Z,82.00
2019-05-10T21:34:54.755Z,82.40
2019-05-10T21:37:23.492Z,82.50
2019-05-10T21:39:52.339Z,82.90
2019-05-10T21:42:21.092Z,82.90
2019-05-10T21:44:50.239Z,82.20
2019-05-10T21:47:19.156Z,82.20
2019-05-10T21:49:47.961Z,84.20
2019-05-10T21:52:16.986Z,85.40
2019-05-10T21:54:45.868Z,86.40
2019-05-10T21:57:14.992Z,86.10
2019-05-10T21:59:43.794Z,87.40
2019-05-10T22:02:12.644Z,87.40
2019-05-10T22:04:41.699Z,88.10
2019-05-10T22:07:10.893Z,89.00
2019-05-10T22:09:39.696Z,89.90
2019-05-10T22:12:08.936Z,90.10
2019-05-10T22:14:38.401Z,89.40
2019-05-10T22:17:07.469Z,89.30
2019-05-10T22:19:36.560Z,88.50
2019-05-10T22:22:05.400Z,88.10
2019-05-10T22:24:34.395Z,86.70
2019-05-10T22:27:03.143Z,86.70
2019-05-10T22:29:32.021Z,86.00
2019-05-10T22:32:01.035Z,87.20
2019-05-10T22:34:30.067Z,87.40
2019-05-10T22:36:59.435Z,88.10
2019-05-10T22:39:28.529Z,89.60
2019-05-10T22:41:57.350Z,90.30
2019-05-10T22:44:26.128Z,90.40
2019-05-10T22:46:54.914Z,90.80
2019-05-10T22:49:23.693Z,90.40
2019-05-10T22:51:52.497Z,90.40
2019-05-10T22:54:21.322Z,91.00
2019-05-10T22:56:50.104Z,91.50
2019-05-10T22:59:18.875Z,90.80
2019-05-10T23:01:47.670Z,90.20
2019-05-10T23:04:16.620Z,89.30
2019-05-10T23:06:45.920Z,89.50
2019-05-10T23:09:24.193Z,89.50
2019-05-10T23:11:45.535Z,88.40
2019-05-10T23:14:14.417Z,88.00
2019-05-10T23:16:43.363Z,87.70
2019-05-10T23:19:12.293Z,88.20
2019-05-10T23:21:41.430Z,88.20
2019-05-10T23:24:12.267Z,87.50
2019-05-10T23:26:41.278Z,87.00
2019-05-10T23:29:10.207Z,88.00
2019-05-10T23:31:39.038Z,87.40
2019-05-10T23:34:07.933Z,87.30
2019-05-10T23:36:36.843Z,86.70
2019-05-10T23:39:07.131Z,85.60
2019-05-10T23:41:36.052Z,85.00
2019-05-10T23:44:05.062Z,85.00
2019-05-10T23:46:33.954Z,86.80
2019-05-10T23:49:03.096Z,86.80
2019-05-10T23:51:31.976Z,86.40
2019-05-10T23:54:01.110Z,85.90
2019-05-10T23:56:30.209Z,85.00
2019-05-10T23:58:59.304Z,85.00
